Time;durP1;ratioP1;P1;durP2;ratioP2;P2;SDS_P1;SDS_P2;PMS_P1;PMS_P2;Temp;Humidity;BMP_temperature;BMP_pressure;BME280_temperature;BME280_humidity;BME280_pressure;Samples;Min_cycle;Max_cycle;Signal;HPM_P1;HPM_P2
2022/11/05 00:11:14;;;;;;;40.83;38.63;;;;;;;5.80;100.00;101048.50;5013816;28;20469;-47
2022/11/05 00:16:43;;;;;;;41.50;38.77;;;;;;;5.74;100.00;101053.56;5014409;28;20437;-45
2022/11/05 00:19:12;;;;;;;42.47;39.40;;;;;;;5.70;100.00;101055.72;5014388;28;20433;-47
2022/11/05 00:27:11;;;;;;;41.10;38.80;;;;;;;5.60;100.00;101049.72;5013903;28;20484;-45
2022/11/05 00:29:40;;;;;;;42.07;39.13;;;;;;;5.57;100.00;101058.78;5013896;28;20539;-48
2022/11/05 00:32:08;;;;;;;40.97;37.97;;;;;;;5.55;100.00;101063.41;5013613;28;20846;-47
2022/11/05 00:34:35;;;;;;;41.47;38.87;;;;;;;5.52;100.00;101058.44;5014079;28;20537;-45
2022/11/05 00:37:03;;;;;;;44.50;41.50;;;;;;;5.49;100.00;101061.41;5013989;28;20433;-46
2022/11/05 00:39:31;;;;;;;40.83;37.53;;;;;;;5.47;100.00;101062.53;5014026;28;20934;-51
2022/11/05 00:45:03;;;;;;;41.97;39.30;;;;;;;5.42;100.00;101075.38;5013795;28;20433;-48
2022/11/05 00:50:18;;;;;;;44.93;40.90;;;;;;;5.38;100.00;101071.38;5013457;28;20536;-45
2022/11/05 00:52:56;;;;;;;41.80;38.93;;;;;;;5.37;100.00;101075.03;5013493;28;20958;-49
2022/11/05 00:55:27;;;;;;;42.77;39.80;;;;;;;5.35;100.00;101066.41;5013997;28;20934;-50
2022/11/05 00:57:55;;;;;;;41.53;39.03;;;;;;;5.33;100.00;101068.38;5014042;28;20410;-46
2022/11/05 01:00:29;;;;;;;42.90;40.40;;;;;;;5.33;100.00;101063.94;5013152;28;20484;-46
2022/11/05 01:03:02;;;;;;;42.37;39.80;;;;;;;5.31;100.00;101062.44;5013608;28;20483;-45
2022/11/05 01:05:31;;;;;;;43.77;41.20;;;;;;;5.30;100.00;101061.59;5013648;28;20433;-45
2022/11/05 01:08:00;;;;;;;42.27;39.37;;;;;;;5.28;100.00;101066.22;5013912;28;20550;-47
2022/11/05 01:10:29;;;;;;;42.23;39.73;;;;;;;5.26;100.00;101062.03;5012951;28;20462;-47
2022/11/05 01:12:58;;;;;;;42.60;40.07;;;;;;;5.23;100.00;101065.81;5013859;28;20460;-47
2022/11/05 01:15:27;;;;;;;43.63;41.00;;;;;;;5.20;100.00;101073.22;5013631;28;20827;-50
2022/11/05 01:17:55;;;;;;;44.13;41.13;;;;;;;5.19;100.00;101082.16;5013706;28;20445;-46
2022/11/05 01:20:23;;;;;;;43.20;40.60;;;;;;;5.16;100.00;101077.19;5007201;28;20537;-48
2022/11/05 01:22:52;;;;;;;43.80;40.33;;;;;;;5.15;100.00;101072.88;5008540;28;20449;-45
2022/11/05 01:25:20;;;;;;;42.50;39.83;;;;;;;5.14;100.00;101073.88;4993985;28;20450;-45
2022/11/05 01:27:48;;;;;;;43.47;40.40;;;;;;;5.13;100.00;101080.13;4993638;28;20476;-47
2022/11/05 01:30:17;;;;;;;41.30;39.00;;;;;;;5.13;100.00;101082.78;4992915;28;21018;-46
2022/11/05 01:32:46;;;;;;;42.20;39.53;;;;;;;5.14;100.00;101072.03;4993449;28;20553;-48
2022/11/05 01:35:16;;;;;;;40.80;38.20;;;;;;;5.15;100.00;101072.88;4993694;28;20443;-47
2022/11/05 01:37:44;;;;;;;40.93;38.50;;;;;;;5.17;100.00;101074.38;4993717;28;20462;-50
2022/11/05 01:40:15;;;;;;;42.23;38.93;;;;;;;5.21;100.00;101077.53;4992740;28;20902;-49
2022/11/05 01:42:44;;;;;;;39.23;36.80;;;;;;;5.27;100.00;101072.47;4993416;28;20556;-47
2022/11/05 01:45:16;;;;;;;39.77;37.37;;;;;;;5.36;100.00;101076.00;4993353;28;20525;-46
2022/11/05 01:48:07;;;;;;;37.27;35.10;;;;;;;5.43;100.00;101077.06;4993387;28;20516;-49
2022/11/05 01:50:43;;;;;;;37.67;35.10;;;;;;;5.51;100.00;101087.69;4992893;28;20645;-47
2022/11/05 01:53:20;;;;;;;37.43;35.30;;;;;;;5.54;100.00;101072.34;4993365;28;20560;-45
2022/11/05 01:55:55;;;;;;;40.63;37.63;;;;;;;5.56;100.00;101074.81;4993733;28;20529;-46
2022/11/05 01:58:30;;;;;;;39.63;37.37;;;;;;;5.57;100.00;101074.66;4993055;28;20448;-46
2022/11/05 02:00:59;;;;;;;39.93;37.53;;;;;;;5.54;100.00;101080.28;4992523;28;20484;-48
2022/11/05 02:03:30;;;;;;;40.00;37.57;;;;;;;5.51;100.00;101079.75;4993135;28;20901;-50
2022/11/05 02:06:00;;;;;;;39.77;37.53;;;;;;;5.46;100.00;101085.53;4993294;28;20473;-47
2022/11/05 02:08:49;;;;;;;39.50;37.00;;;;;;;5.41;100.00;101079.00;4993182;28;20532;-50
2022/11/05 02:11:19;;;;;;;39.43;37.27;;;;;;;5.33;100.00;101081.59;4992165;28;20474;-47
2022/11/05 02:13:49;;;;;;;38.60;36.30;;;;;;;5.26;100.00;101083.19;4993887;28;20553;-50
2022/11/05 02:16:33;;;;;;;39.37;36.87;;;;;;;5.18;100.00;101094.56;4993185;28;20449;-45
2022/11/05 02:19:37;;;;;;;37.20;35.43;;;;;;;5.10;100.00;101086.56;4993127;28;20529;-46
2022/11/05 02:22:35;;;;;;;39.07;36.63;;;;;;;5.01;100.00;101085.66;4994060;28;20461;-48
2022/11/05 02:25:32;;;;;;;37.87;35.83;;;;;;;4.94;100.00;101083.78;4973316;28;20531;-46
2022/11/05 02:28:22;;;;;;;37.30;35.10;;;;;;;4.86;100.00;101083.72;4973486;28;20445;-45
2022/11/05 02:30:56;;;;;;;37.40;35.30;;;;;;;4.79;100.00;101088.75;4972827;28;20496;-49
2022/11/05 02:33:38;;;;;;;38.97;36.73;;;;;;;4.73;100.00;101084.06;4973409;28;20516;-45
2022/11/05 02:36:28;;;;;;;37.23;35.23;;;;;;;4.66;100.00;101083.00;4973201;28;20968;-46
2022/11/05 02:39:08;;;;;;;37.17;35.03;;;;;;;4.62;100.00;101089.59;4973172;28;20451;-46
2022/11/05 02:41:43;;;;;;;38.50;36.37;;;;;;;4.57;100.00;101097.09;4972209;28;20489;-47
2022/11/05 02:44:21;;;;;;;38.20;36.03;;;;;;;4.54;100.00;101099.25;4973179;28;20473;-45
2022/11/05 02:46:58;;;;;;;37.27;35.57;;;;;;;4.48;100.00;101093.56;4972961;28;20442;-50
2022/11/05 02:49:40;;;;;;;36.33;34.37;;;;;;;4.45;100.00;101095.66;4973182;28;20834;-46
2022/11/05 02:52:15;;;;;;;37.10;34.57;;;;;;;4.41;100.00;101095.16;4973911;28;20457;-47
2022/11/05 02:54:47;;;;;;;35.93;33.93;;;;;;;4.37;100.00;101099.03;4976967;28;20422;-48
2022/11/05 02:57:15;;;;;;;36.20;33.70;;;;;;;4.36;100.00;101094.75;4976827;28;20482;-49
2022/11/05 02:59:42;;;;;;;34.83;32.93;;;;;;;4.34;100.00;101095.88;4976644;28;20435;-46
2022/11/05 03:02:14;;;;;;;33.50;32.00;;;;;;;4.33;100.00;101091.59;4976046;28;20553;-46
2022/11/05 03:04:42;;;;;;;35.30;33.10;;;;;;;4.35;100.00;101100.19;4977011;28;20721;-48
2022/11/05 03:07:30;;;;;;;35.17;32.93;;;;;;;4.35;100.00;101094.91;4976759;28;20431;-49
2022/11/05 03:10:24;;;;;;;35.37;33.43;;;;;;;4.35;100.00;101090.47;4975920;28;20481;-48
2022/11/05 03:13:04;;;;;;;36.83;34.03;;;;;;;4.36;100.00;101099.22;4970598;28;20561;-47
2022/11/05 03:15:45;;;;;;;35.40;33.70;;;;;;;4.38;100.00;101103.38;4976755;28;20537;-46
2022/11/05 03:18:20;;;;;;;35.67;33.53;;;;;;;4.38;100.00;101099.88;4976610;28;20526;-47
2022/11/05 03:20:54;;;;;;;36.20;34.07;;;;;;;4.39;100.00;101097.09;4983544;28;20970;-48
2022/11/05 03:23:27;;;;;;;36.33;34.00;;;;;;;4.44;100.00;101101.94;5007428;28;20543;-47
2022/11/05 03:26:03;;;;;;;35.07;33.27;;;;;;;4.47;100.00;101104.28;5015494;28;20433;-46
2022/11/05 03:28:35;;;;;;;35.00;33.23;;;;;;;4.50;100.00;101108.44;5015878;28;20834;-47
2022/11/05 03:31:05;;;;;;;35.97;34.07;;;;;;;4.52;100.00;101120.50;5014732;28;20883;-48
2022/11/05 03:33:38;;;;;;;37.30;34.73;;;;;;;4.56;100.00;101111.31;5015239;28;20461;-46
2022/11/05 03:36:14;;;;;;;37.53;35.03;;;;;;;4.59;100.00;101120.75;5015222;28;20421;-45
2022/11/05 03:38:48;;;;;;;38.67;35.30;;;;;;;4.60;100.00;101117.94;5015199;28;20431;-49
2022/11/05 03:41:18;;;;;;;38.43;35.63;;;;;;;4.61;100.00;101116.97;5014285;28;20876;-49
2022/11/05 03:43:52;;;;;;;37.53;35.17;;;;;;;4.60;100.00;101115.31;5015204;28;20511;-45
2022/11/05 03:46:26;;;;;;;36.40;34.40;;;;;;;4.59;100.00;101118.94;5014964;28;20994;-45
2022/11/05 03:48:58;;;;;;;36.93;34.73;;;;;;;4.59;100.00;101115.47;5014829;28;20950;-46
2022/11/05 03:51:36;;;;;;;36.97;34.80;;;;;;;4.59;100.00;101121.59;5014027;28;20492;-49
2022/11/05 03:54:05;;;;;;;37.83;35.40;;;;;;;4.60;100.00;101123.22;5015016;28;20540;-47
2022/11/05 03:56:38;;;;;;;36.93;34.20;;;;;;;4.64;100.00;101116.69;5014962;28;20445;-45
2022/11/05 03:59:09;;;;;;;38.13;35.23;;;;;;;4.69;100.00;101129.44;5014790;28;20495;-46
2022/11/05 04:01:38;;;;;;;38.00;35.40;;;;;;;4.68;100.00;101123.34;5013997;28;20608;-46
2022/11/05 04:04:07;;;;;;;37.40;35.13;;;;;;;4.67;100.00;101131.38;5013919;28;20429;-49
2022/11/05 04:14:51;;;;;;;35.43;33.23;;;;;;;4.54;100.00;101123.81;5014578;28;20540;-46
2022/11/05 04:17:18;;;;;;;36.27;33.93;;;;;;;4.52;100.00;101127.59;5014449;28;20472;-47
2022/11/05 04:25:21;;;;;;;35.00;32.90;;;;;;;4.34;100.00;101143.38;4994758;28;20496;-47
2022/11/05 04:27:49;;;;;;;34.13;32.33;;;;;;;4.29;100.00;101149.13;4994551;28;20441;-45
2022/11/05 04:30:17;;;;;;;34.60;32.80;;;;;;;4.26;100.00;101143.31;4994207;28;20549;-48
2022/11/05 04:32:59;;;;;;;35.50;33.43;;;;;;;4.23;100.00;101139.16;4994344;28;20474;-47
2022/11/05 04:35:30;;;;;;;34.60;32.80;;;;;;;4.23;100.00;101139.16;4994337;28;20820;-46
2022/11/05 04:37:58;;;;;;;34.60;32.80;;;;;;;4.24;100.00;101137.34;4994551;28;21066;-45
2022/11/05 04:40:26;;;;;;;35.60;33.60;;;;;;;4.26;100.00;101141.50;4993661;28;20981;-45
2022/11/05 04:42:55;;;;;;;36.17;34.20;;;;;;;4.31;100.00;101143.69;4994144;28;20573;-49
2022/11/05 04:45:23;;;;;;;35.40;33.30;;;;;;;4.34;100.00;101146.03;4994303;28;20994;-47
2022/11/05 04:47:51;;;;;;;36.00;34.00;;;;;;;4.34;100.00;101146.03;4994052;28;20438;-47
2022/11/05 04:50:19;;;;;;;35.23;33.30;;;;;;;4.33;100.00;101149.66;4997944;28;20543;-45
2022/11/05 04:52:49;;;;;;;35.23;33.30;;;;;;;4.30;100.00;101149.97;5013556;28;20445;-44
2022/11/05 04:55:17;;;;;;;37.10;35.00;;;;;;;4.26;100.00;101149.41;5013819;28;20461;-48
2022/11/05 04:57:47;;;;;;;37.60;35.47;;;;;;;4.23;100.00;101156.78;5013638;28;20425;-45
2022/11/05 05:00:16;;;;;;;36.80;34.97;;;;;;;4.19;100.00;101163.31;5012815;28;20523;-48
2022/11/05 05:02:44;;;;;;;37.43;35.03;;;;;;;4.15;100.00;101161.97;5013251;28;20489;-47
2022/11/05 05:05:12;;;;;;;35.40;33.50;;;;;;;4.13;100.00;101159.47;5013511;28;20438;-45
2022/11/05 05:07:40;;;;;;;35.50;33.43;;;;;;;4.13;100.00;101164.75;5013656;28;20788;-45
2022/11/05 05:10:10;;;;;;;37.03;34.90;;;;;;;4.11;100.00;101161.44;5012707;28;20492;-51
2022/11/05 05:12:38;;;;;;;35.23;33.30;;;;;;;4.12;100.00;101154.34;5013287;28;20523;-45
2022/11/05 05:15:06;;;;;;;37.40;35.07;;;;;;;4.12;100.00;101165.72;5012080;28;20495;-45
2022/11/05 05:17:34;;;;;;;39.27;36.17;;;;;;;4.14;100.00;101168.22;5013597;28;20479;-45
2022/11/05 05:22:51;;;;;;;40.57;38.03;;;;;;;4.18;100.00;101172.25;5012996;28;20452;-46
2022/11/05 05:25:21;;;;;;;37.33;35.47;;;;;;;4.19;100.00;101181.81;5013039;28;20433;-47
2022/11/05 05:27:49;;;;;;;36.90;34.03;;;;;;;4.17;100.00;101171.41;5013252;28;20472;-46
2022/11/05 05:30:16;;;;;;;38.53;36.10;;;;;;;4.17;100.00;101171.41;5012399;28;20866;-49
2022/11/05 05:32:44;;;;;;;37.40;34.90;;;;;;;4.15;100.00;101170.69;5012699;28;20822;-46
2022/11/05 05:35:12;;;;;;;37.97;35.67;;;;;;;4.16;100.00;101171.53;5012958;28;20429;-46
2022/11/05 05:37:40;;;;;;;36.43;34.53;;;;;;;4.12;100.00;101165.72;5013033;28;20835;-47
2022/11/05 05:40:09;;;;;;;37.00;34.87;;;;;;;4.12;100.00;101167.53;5012165;28;20549;-47
2022/11/05 05:42:38;;;;;;;37.23;35.20;;;;;;;4.10;100.00;101164.19;5012793;28;20548;-46
2022/11/05 05:45:11;;;;;;;37.80;35.80;;;;;;;4.10;100.00;101169.47;5012764;28;20920;-46
2022/11/05 05:47:39;;;;;;;37.43;35.43;;;;;;;4.11;100.00;101171.16;5012923;28;20421;-50
2022/11/05 05:50:07;;;;;;;37.47;35.20;;;;;;;4.07;100.00;101165.31;5012064;28;20488;-46
2022/11/05 05:52:35;;;;;;;37.80;35.70;;;;;;;4.04;100.00;101170.03;5012263;28;20437;-45
2022/11/05 05:55:03;;;;;;;38.17;36.13;;;;;;;4.02;100.00;101172.00;5012769;28;20429;-48
2022/11/05 05:57:30;;;;;;;38.30;36.20;;;;;;;4.00;100.00;101166.88;5012796;28;20430;-48
2022/11/05 06:00:00;;;;;;;38.30;35.90;;;;;;;3.97;100.00;101172.47;5012467;28;20435;-46
2022/11/05 06:02:30;;;;;;;38.30;36.10;;;;;;;3.98;100.00;101182.00;5012334;28;20548;-46
2022/11/05 06:04:57;;;;;;;39.33;36.23;;;;;;;4.00;100.00;101176.59;5012074;28;20504;-46
2022/11/05 06:07:25;;;;;;;38.27;36.20;;;;;;;4.01;100.00;101186.16;5012277;28;20487;-45
2022/11/05 06:09:52;;;;;;;40.83;38.50;;;;;;;4.01;100.00;101194.91;5011711;28;20989;-45
2022/11/05 06:12:20;;;;;;;40.20;38.00;;;;;;;4.01;100.00;101183.53;5011664;28;21056;-46
2022/11/05 06:14:48;;;;;;;39.60;37.30;;;;;;;4.00;100.00;101193.28;5012014;28;20987;-47
2022/11/05 06:17:17;;;;;;;38.20;36.20;;;;;;;4.00;100.00;101195.91;5012124;28;20441;-45
2022/11/05 06:19:44;;;;;;;39.93;37.83;;;;;;;4.02;100.00;101201.03;5011932;28;20445;-44
2022/11/05 06:22:12;;;;;;;39.60;37.50;;;;;;;4.03;100.00;101198.28;5010259;28;20472;-46
2022/11/05 06:24:40;;;;;;;40.03;37.63;;;;;;;4.04;100.00;101202.56;5012093;28;20429;-45
2022/11/05 06:27:07;;;;;;;38.20;35.90;;;;;;;4.07;100.00;101201.44;5011728;28;20429;-45
2022/11/05 06:29:35;;;;;;;38.03;36.10;;;;;;;4.09;100.00;101202.13;5011946;28;20453;-45
2022/11/05 06:32:03;;;;;;;39.47;37.20;;;;;;;4.10;100.00;101194.06;5010855;28;20488;-45
2022/11/05 06:34:31;;;;;;;39.53;37.27;;;;;;;4.13;100.00;101201.69;5012082;28;20488;-46
2022/11/05 06:36:59;;;;;;;38.57;35.70;;;;;;;4.17;100.00;101202.25;5011677;28;20753;-47
2022/11/05 06:39:27;;;;;;;37.33;35.33;;;;;;;4.18;100.00;101204.72;5011935;28;20447;-46
2022/11/05 06:41:54;;;;;;;36.93;35.00;;;;;;;4.21;100.00;101203.63;5010935;28;20464;-44
2022/11/05 06:44:42;;;;;;;38.60;36.33;;;;;;;4.26;100.00;101211.94;5003365;28;20860;-45
2022/11/05 06:47:11;;;;;;;40.10;37.60;;;;;;;4.31;100.00;101207.88;5011829;28;20533;-45
2022/11/05 06:49:40;;;;;;;38.40;36.23;;;;;;;4.38;100.00;101208.16;5011318;28;20880;-47
2022/11/05 06:52:08;;;;;;;39.17;36.87;;;;;;;4.43;100.00;101213.81;5010360;28;20481;-45
2022/11/05 06:54:35;;;;;;;39.53;37.20;;;;;;;4.50;100.00;101208.78;5011472;28;20433;-46
2022/11/05 06:57:03;;;;;;;40.30;37.77;;;;;;;4.58;100.00;101212.34;4983186;28;20449;-45
2022/11/05 06:59:31;;;;;;;42.27;39.37;;;;;;;4.69;100.00;101219.28;5011434;28;20843;-46
2022/11/05 07:01:58;;;;;;;38.50;36.20;;;;;;;4.80;100.00;101217.25;5011270;28;20449;-47
2022/11/05 07:04:26;;;;;;;38.97;36.90;;;;;;;4.94;100.00;101227.31;5011025;28;20425;-47
2022/11/05 07:06:55;;;;;;;39.03;36.80;;;;;;;5.06;100.00;101224.47;5010875;28;20437;-45
2022/11/05 07:09:23;;;;;;;39.57;37.07;;;;;;;5.16;100.00;101218.13;5011211;28;20440;-48
2022/11/05 07:11:51;;;;;;;38.77;36.00;;;;;;;5.29;100.00;101223.03;5010851;28;20477;-48
2022/11/05 07:14:19;;;;;;;39.37;36.57;;;;;;;5.41;100.00;101227.13;5011074;28;20440;-47
2022/11/05 07:16:46;;;;;;;36.60;34.47;;;;;;;5.50;100.00;101227.03;5011376;28;20507;-47
2022/11/05 07:19:14;;;;;;;39.53;36.60;;;;;;;5.60;100.00;101232.25;5010245;28;20511;-45
2022/11/05 07:21:42;;;;;;;39.40;37.10;;;;;;;5.70;100.00;101232.19;5005314;28;20475;-47
2022/11/05 07:24:13;;;;;;;39.47;36.93;;;;;;;5.78;100.00;101235.72;5011170;28;20444;-47
2022/11/05 07:26:41;;;;;;;41.40;39.00;;;;;;;5.88;100.00;101228.56;5011434;28;20426;-45
2022/11/05 07:29:10;;;;;;;44.40;41.73;;;;;;;5.98;100.00;101233.75;5010866;28;20461;-48
2022/11/05 07:31:38;;;;;;;41.27;39.10;;;;;;;6.09;100.00;101236.97;5010727;28;20476;-48
2022/11/05 07:34:06;;;;;;;42.20;39.60;;;;;;;6.22;100.00;101231.25;5010890;28;20429;-50
2022/11/05 07:36:33;;;;;;;41.23;38.53;;;;;;;6.37;100.00;101237.63;5010715;28;20487;-47
2022/11/05 07:39:01;;;;;;;39.70;37.50;;;;;;;6.56;100.00;101239.22;5012855;28;20994;-44
2022/11/05 07:41:31;;;;;;;39.40;36.53;;;;;;;6.79;100.00;101248.25;5015083;28;20448;-47
2022/11/05 07:43:58;;;;;;;37.27;35.20;;;;;;;7.03;100.00;101242.22;5012665;28;20539;-49
2022/11/05 07:46:45;;;;;;;36.87;34.60;;;;;;;7.31;100.00;101245.44;4995338;28;20438;-45
2022/11/05 07:49:13;;;;;;;38.40;36.00;;;;;;;7.52;100.00;101257.25;5005914;28;20463;-46
2022/11/05 07:51:41;;;;;;;38.37;35.70;;;;;;;7.74;100.00;101256.59;5014041;28;20469;-47
2022/11/05 07:54:08;;;;;;;39.33;36.87;;;;;;;7.93;100.00;101260.75;5014128;28;20508;-45
2022/11/05 07:56:38;;;;;;;40.53;37.87;;;;;;;8.06;100.00;101261.09;5014417;28;20441;-47
2022/11/05 07:59:06;;;;;;;41.20;38.00;;;;;;;8.17;100.00;101262.53;5013549;28;20469;-49
2022/11/05 08:01:33;;;;;;;41.27;37.57;;;;;;;8.19;100.00;101263.19;5013468;28;20464;-45
2022/11/05 08:04:01;;;;;;;39.53;37.10;;;;;;;8.24;100.00;101259.03;5014054;28;20539;-45
2022/11/05 08:06:29;;;;;;;39.43;36.90;;;;;;;8.28;100.00;101259.56;5014187;28;20483;-47
2022/11/05 08:08:57;;;;;;;41.30;37.90;;;;;;;8.29;100.00;101256.75;5013794;28;20997;-49
2022/11/05 08:11:25;;;;;;;39.73;36.70;;;;;;;8.24;100.00;101251.06;5013671;28;20465;-45
2022/11/05 08:13:54;;;;;;;40.13;37.03;;;;;;;8.21;100.00;101254.06;5013989;28;20456;-45
2022/11/05 08:16:22;;;;;;;38.20;35.30;;;;;;;8.23;100.00;101257.41;5013827;28;20613;-47
2022/11/05 08:18:50;;;;;;;37.30;35.10;;;;;;;8.30;100.00;101258.38;5013473;28;20835;-48
2022/11/05 08:21:18;;;;;;;38.20;35.70;;;;;;;8.38;100.00;101256.72;5014091;28;20445;-48
2022/11/05 08:23:46;;;;;;;38.93;36.50;;;;;;;8.45;100.00;101260.38;5006469;28;20481;-46
2022/11/05 08:26:13;;;;;;;42.10;38.93;;;;;;;8.61;100.00;101262.97;5014270;28;20822;-48
2022/11/05 08:28:41;;;;;;;41.83;39.10;;;;;;;8.79;100.00;101258.25;5013275;28;20469;-45
2022/11/05 08:31:10;;;;;;;41.47;38.70;;;;;;;8.99;100.00;101259.50;5013898;28;20507;-45
2022/11/05 08:33:38;;;;;;;43.67;40.50;;;;;;;9.20;100.00;101262.38;5014057;28;20472;-45
2022/11/05 08:36:07;;;;;;;42.37;39.10;;;;;;;9.36;100.00;101262.28;5014045;28;20464;-47
2022/11/05 08:38:34;;;;;;;40.67;37.87;;;;;;;9.48;100.00;101267.19;5010894;28;20473;-46
2022/11/05 08:41:02;;;;;;;42.63;39.63;;;;;;;9.57;100.00;101268.81;5011726;28;20434;-45
2022/11/05 08:43:30;;;;;;;43.20;40.50;;;;;;;9.76;100.00;101269.19;5010972;28;21088;-50
2022/11/05 08:46:00;;;;;;;44.63;41.27;;;;;;;9.86;100.00;101258.25;5010700;28;20433;-45
2022/11/05 08:48:28;;;;;;;44.50;41.43;;;;;;;10.05;100.00;101259.59;5010681;28;20882;-45
2022/11/05 08:50:59;;;;;;;44.27;41.17;;;;;;;10.18;100.00;101263.34;5009697;28;20437;-44
2022/11/05 08:53:27;;;;;;;44.90;41.90;;;;;;;10.20;100.00;101261.31;5009992;28;20898;-49
2022/11/05 08:55:57;;;;;;;45.27;42.47;;;;;;;10.30;100.00;101255.72;5009912;28;20503;-45
2022/11/05 08:58:25;;;;;;;45.13;42.43;;;;;;;10.35;100.00;101264.00;5010354;28;20465;-45
2022/11/05 09:00:52;;;;;;;47.33;44.17;;;;;;;10.33;100.00;101258.03;5010168;28;20440;-47
2022/11/05 09:03:20;;;;;;;47.40;44.30;;;;;;;10.33;100.00;101263.38;5010564;28;20445;-46
2022/11/05 09:05:49;;;;;;;48.73;45.53;;;;;;;10.27;100.00;101264.94;5010824;28;20441;-46
2022/11/05 09:08:18;;;;;;;47.17;44.47;;;;;;;10.31;100.00;101268.03;5010420;28;20465;-46
2022/11/05 09:10:48;;;;;;;46.57;43.77;;;;;;;10.37;100.00;101268.13;5009893;28;20985;-48
2022/11/05 09:13:16;;;;;;;45.17;42.47;;;;;;;10.47;100.00;101271.38;5002771;28;20886;-49
2022/11/05 09:15:47;;;;;;;45.27;42.20;;;;;;;10.49;100.00;101266.69;5010802;28;20433;-47
2022/11/05 09:18:15;;;;;;;45.10;42.10;;;;;;;10.48;100.00;101269.53;5010599;28;20457;-45
2022/11/05 09:20:43;;;;;;;45.07;42.57;;;;;;;10.45;100.00;101267.25;5003769;28;20825;-48
2022/11/05 09:23:14;;;;;;;46.20;43.50;;;;;;;10.45;100.00;101273.38;5009898;28;20508;-48
2022/11/05 09:25:42;;;;;;;45.87;42.27;;;;;;;10.40;100.00;101262.44;5000378;28;20437;-46
2022/11/05 09:28:12;;;;;;;44.73;41.60;;;;;;;10.42;100.00;101272.94;5010203;28;20472;-47
2022/11/05 09:30:47;;;;;;;42.77;40.03;;;;;;;10.58;100.00;101275.41;5010392;28;20798;-48
2022/11/05 09:33:15;;;;;;;41.53;38.73;;;;;;;10.87;100.00;101277.25;5001849;28;20480;-47
2022/11/05 09:35:43;;;;;;;42.23;39.67;;;;;;;11.05;100.00;101275.84;5010420;28;20504;-49
2022/11/05 09:38:12;;;;;;;42.47;39.70;;;;;;;11.23;100.00;101282.63;5009822;28;20464;-52
2022/11/05 09:40:43;;;;;;;42.97;40.30;;;;;;;11.40;100.00;101276.88;5009850;28;20433;-48
2022/11/05 09:43:17;;;;;;;44.77;41.67;;;;;;;11.51;100.00;101279.03;5009672;28;20499;-47
2022/11/05 09:45:48;;;;;;;44.47;41.37;;;;;;;11.57;100.00;101278.28;5000379;28;20467;-48
2022/11/05 09:48:20;;;;;;;45.23;42.67;;;;;;;11.51;100.00;101281.72;5009984;28;20465;-45
2022/11/05 09:50:48;;;;;;;47.07;44.20;;;;;;;11.44;100.00;101285.34;5009326;28;20441;-49
2022/11/05 09:53:19;;;;;;;48.00;45.20;;;;;;;11.37;100.00;101287.94;5002046;28;20535;-51
2022/11/05 09:55:49;;;;;;;46.83;44.10;;;;;;;11.58;100.00;101281.78;5009909;28;20843;-46
2022/11/05 09:58:22;;;;;;;43.60;41.23;;;;;;;11.79;100.00;101287.19;5009696;28;20516;-46
2022/11/05 10:00:56;;;;;;;44.83;42.27;;;;;;;11.88;100.00;101287.88;5008884;28;20516;-45
2022/11/05 10:03:28;;;;;;;44.20;41.70;;;;;;;12.15;100.00;101287.09;5009757;28;20539;-45
2022/11/05 10:06:09;;;;;;;43.80;41.10;;;;;;;12.29;100.00;101286.16;5011161;28;20476;-45
2022/11/05 10:08:44;;;;;;;42.87;40.77;;;;;;;12.60;100.00;101283.88;5010991;28;20882;-47
2022/11/05 10:11:16;;;;;;;45.60;43.03;;;;;;;12.84;100.00;101298.66;5010442;28;20463;-45
2022/11/05 10:13:47;;;;;;;46.23;43.50;;;;;;;12.89;100.00;101296.22;5010366;28;20473;-45
2022/11/05 10:16:22;;;;;;;44.97;42.07;;;;;;;12.84;100.00;101289.81;5010957;28;20437;-49
2022/11/05 10:18:54;;;;;;;44.23;41.40;;;;;;;12.64;100.00;101295.84;5009059;28;20452;-45
2022/11/05 10:21:21;;;;;;;44.53;41.60;;;;;;;12.44;100.00;101286.88;5008028;28;20483;-48
2022/11/05 10:24:14;;;;;;;44.43;41.93;;;;;;;12.69;100.00;101281.91;5010085;28;20469;-46
2022/11/05 10:26:44;;;;;;;44.87;42.20;;;;;;;12.86;100.00;101287.75;5011010;28;20858;-50
2022/11/05 10:29:25;;;;;;;44.00;41.30;;;;;;;13.11;100.00;101288.94;5010067;28;20507;-51
2022/11/05 10:31:54;;;;;;;46.63;43.83;;;;;;;13.21;100.00;101289.38;5009011;28;20918;-46
2022/11/05 10:34:26;;;;;;;44.47;41.93;;;;;;;13.36;100.00;101290.06;5010395;28;21029;-51
2022/11/05 10:36:54;;;;;;;43.50;40.77;;;;;;;13.34;100.00;101285.94;5009959;28;20831;-49
2022/11/05 10:39:26;;;;;;;41.97;39.77;;;;;;;13.22;100.00;101291.88;5010495;28;20445;-45
2022/11/05 10:42:09;;;;;;;41.83;39.63;;;;;;;13.05;100.00;101292.38;5008966;28;20502;-47
2022/11/05 10:44:44;;;;;;;44.07;41.30;;;;;;;12.97;100.00;101298.72;5010309;28;20422;-49
2022/11/05 10:47:40;;;;;;;43.80;41.20;;;;;;;13.04;100.00;101291.56;5004964;28;20432;-47
2022/11/05 10:50:11;;;;;;;40.87;38.67;;;;;;;13.01;100.00;101289.28;5007230;28;20491;-47
2022/11/05 10:52:53;;;;;;;41.67;39.07;;;;;;;12.74;100.00;101290.16;5008590;28;20465;-51
2022/11/05 10:55:25;;;;;;;39.20;36.90;;;;;;;12.58;100.00;101296.66;5009873;28;20463;-51
2022/11/05 10:57:53;;;;;;;41.50;39.13;;;;;;;12.44;100.00;101308.28;4982711;28;20546;-45
2022/11/05 11:00:23;;;;;;;45.37;42.47;;;;;;;12.22;100.00;101322.69;5009992;28;20433;-46
2022/11/05 11:02:53;;;;;;;50.00;44.53;;;;;;;11.78;100.00;101327.44;5008717;28;20519;-51
2022/11/05 11:05:23;;;;;;;47.73;42.80;;;;;;;11.64;100.00;101316.59;5009862;28;20429;-46
2022/11/05 11:07:58;;;;;;;39.70;37.80;;;;;;;11.57;100.00;101323.69;5008976;28;20433;-49
2022/11/05 11:10:28;;;;;;;38.57;36.57;;;;;;;11.44;100.00;101320.88;5009418;28;20984;-49
2022/11/05 11:12:57;;;;;;;37.67;35.70;;;;;;;11.28;100.00;101315.75;5008459;28;21063;-47
2022/11/05 11:15:31;;;;;;;38.40;36.43;;;;;;;11.24;100.00;101314.47;5011678;28;21177;-49
2022/11/05 11:17:59;;;;;;;37.90;36.10;;;;;;;11.15;100.00;101320.09;5012354;28;20464;-48
2022/11/05 11:20:29;;;;;;;38.00;36.10;;;;;;;11.09;100.00;101321.66;5013030;28;20463;-48
2022/11/05 11:23:10;;;;;;;38.80;36.80;;;;;;;10.91;100.00;101329.22;5011091;28;20456;-47
2022/11/05 11:25:46;;;;;;;38.40;36.37;;;;;;;10.80;100.00;101327.03;5011779;28;20479;-46
2022/11/05 11:28:19;;;;;;;37.93;35.57;;;;;;;10.64;100.00;101317.34;5013244;28;20465;-47
2022/11/05 11:30:51;;;;;;;36.80;35.10;;;;;;;10.65;100.00;101324.34;5012742;28;20432;-50
2022/11/05 11:33:23;;;;;;;36.47;34.77;;;;;;;10.67;100.00;101322.31;5012546;28;20947;-47
2022/11/05 11:35:50;;;;;;;36.93;35.10;;;;;;;10.74;100.00;101317.91;5013715;28;20441;-49
2022/11/05 11:38:18;;;;;;;36.53;34.73;;;;;;;10.79;100.00;101326.19;5010531;28;20465;-50
2022/11/05 11:40:47;;;;;;;36.60;34.80;;;;;;;10.82;100.00;101320.50;5012493;28;20812;-50
2022/11/05 11:43:23;;;;;;;37.70;35.50;;;;;;;10.84;100.00;101326.47;5014478;28;20453;-48
2022/11/05 11:45:53;;;;;;;37.30;35.40;;;;;;;10.74;100.00;101328.59;5014397;28;20474;-44
2022/11/05 11:48:25;;;;;;;37.63;35.57;;;;;;;10.73;100.00;101326.94;5014123;28;20518;-46
2022/11/05 11:50:53;;;;;;;37.30;35.20;;;;;;;10.73;100.00;101328.75;5013963;28;20437;-44
2022/11/05 11:53:40;;;;;;;36.33;34.53;;;;;;;10.78;100.00;101323.72;5014248;28;21117;-47
2022/11/05 11:56:17;;;;;;;37.23;35.17;;;;;;;10.82;100.00;101322.31;5009167;28;20461;-44
2022/11/05 11:58:47;;;;;;;37.10;34.93;;;;;;;10.90;100.00;101324.91;5013730;28;21052;-44
2022/11/05 12:01:56;;;;;;;36.60;34.50;;;;;;;11.04;100.00;101310.72;5013950;28;20429;-50
2022/11/05 12:04:37;;;;;;;37.43;34.90;;;;;;;11.14;100.00;101313.94;5008171;28;20467;-43
2022/11/05 12:07:18;;;;;;;35.90;33.80;;;;;;;11.19;100.00;101319.56;5014239;28;20506;-45